createdAt,value
2022-09-04T00:00:10.975Z,22.70
2022-09-04T00:03:47.155Z,22.60
2022-09-04T00:07:34.433Z,22.60
2022-09-04T00:11:22.893Z,22.70
2022-09-04T00:14:56.911Z,22.60
2022-09-04T00:18:35.388Z,22.60
2022-09-04T00:22:00.314Z,22.70
2022-09-04T00:25:41.100Z,22.70
2022-09-04T00:29:12.004Z,22.70
2022-09-04T00:33:04.508Z,22.60
2022-09-04T00:36:28.348Z,22.60
2022-09-04T00:40:06.146Z,22.60
2022-09-04T00:43:31.429Z,22.60
2022-09-04T00:47:15.385Z,22.60
2022-09-04T00:50:52.641Z,22.60
2022-09-04T00:54:26.822Z,22.60
2022-09-04T00:58:16.421Z,22.60
2022-09-04T01:01:39.099Z,22.60
2022-09-04T01:05:32.154Z,22.60
2022-09-04T01:09:22.325Z,22.60
2022-09-04T01:12:45.511Z,22.60
2022-09-04T01:16:20.101Z,22.60
2022-09-04T01:19:49.707Z,22.60
2022-09-04T01:23:31.034Z,22.60
2022-09-04T01:27:18.014Z,22.60
2022-09-04T01:30:54.477Z,22.60
2022-09-04T01:34:35.425Z,22.60
2022-09-04T01:38:22.345Z,22.60
2022-09-04T01:42:00.193Z,22.60
2022-09-04T01:45:43.062Z,22.60
2022-09-04T01:49:23.533Z,22.60
2022-09-04T01:52:45.687Z,22.60
2022-09-04T01:56:24.640Z,22.60
2022-09-04T02:00:15.574Z,22.60
2022-09-04T02:03:58.200Z,22.50
2022-09-04T02:07:26.320Z,22.60
2022-09-04T02:11:12.236Z,22.60
2022-09-04T02:14:51.093Z,22.50
2022-09-04T02:18:45.467Z,22.60
2022-09-04T02:22:29.390Z,22.60
2022-09-04T02:26:07.246Z,22.60
2022-09-04T02:29:44.530Z,22.60
2022-09-04T02:33:35.441Z,22.60
2022-09-04T02:37:49.684Z,22.60
2022-09-04T02:41:34.072Z,22.60
2022-09-04T02:45:07.797Z,22.50
2022-09-04T02:48:47.786Z,22.60
2022-09-04T02:52:27.654Z,22.50
2022-09-04T02:55:58.764Z,22.50
2022-09-04T02:59:38.078Z,22.60
2022-09-04T03:03:15.085Z,22.60
2022-09-04T03:06:54.654Z,22.60
2022-09-04T03:10:26.624Z,22.70
2022-09-04T03:14:26.731Z,22.60
2022-09-04T03:18:07.793Z,22.60
2022-09-04T03:21:52.517Z,22.60
2022-09-04T03:25:45.741Z,22.60
2022-09-04T03:29:35.009Z,22.60
2022-09-04T03:33:21.574Z,22.60
2022-09-04T03:37:04.279Z,22.60
2022-09-04T03:40:50.079Z,22.60
2022-09-04T03:44:15.237Z,22.60
2022-09-04T03:47:46.650Z,22.60
2022-09-04T03:51:39.842Z,22.60
2022-09-04T03:55:14.272Z,22.60
2022-09-04T03:58:45.150Z,22.60
2022-09-04T04:02:26.305Z,22.60
2022-09-04T04:06:07.079Z,22.60
2022-09-04T04:10:03.373Z,22.60
2022-09-04T04:13:55.160Z,22.60
2022-09-04T04:17:35.934Z,22.60
2022-09-04T04:21:22.946Z,22.60
2022-09-04T04:25:12.441Z,22.50
2022-09-04T04:28:57.043Z,22.50
2022-09-04T04:32:41.167Z,22.40
2022-09-04T04:36:35.802Z,22.40
2022-09-04T04:40:10.437Z,22.30
2022-09-04T04:43:44.613Z,22.30
2022-09-04T04:47:15.775Z,22.30
2022-09-04T04:50:59.597Z,22.30
2022-09-04T04:54:40.273Z,22.40
2022-09-04T04:58:27.210Z,22.40
2022-09-04T05:02:07.723Z,22.40
2022-09-04T05:05:55.215Z,22.40
2022-09-04T05:09:44.495Z,22.40
2022-09-04T05:13:24.813Z,22.40
2022-09-04T05:17:13.710Z,22.30
2022-09-04T05:20:49.629Z,22.20
2022-09-04T05:24:44.336Z,22.10
2022-09-04T05:28:20.461Z,22.10
2022-09-04T05:31:53.666Z,22.10
2022-09-04T05:35:31.935Z,22.10
2022-09-04T05:39:30.935Z,22.10
2022-09-04T05:43:42.349Z,22.10
2022-09-04T05:47:13.165Z,22.10
2022-09-04T05:50:57.693Z,22.20
2022-09-04T05:54:31.997Z,22.20
2022-09-04T05:58:30.727Z,22.30
2022-09-04T06:02:22.109Z,22.20
2022-09-04T06:06:13.947Z,22.10
2022-09-04T06:09:58.554Z,22.00
2022-09-04T06:13:31.014Z,22.00
2022-09-04T06:17:00.513Z,21.90
2022-09-04T06:20:57.981Z,22.00
2022-09-04T06:24:59.385Z,22.00
2022-09-04T06:28:27.039Z,22.10
2022-09-04T06:32:09.649Z,22.10
2022-09-04T06:36:05.624Z,22.10
2022-09-04T06:39:27.872Z,22.10
2022-09-04T06:43:05.684Z,22.10
2022-09-04T06:46:42.387Z,22.10
2022-09-04T06:50:26.675Z,22.10
2022-09-04T06:53:57.188Z,22.30
2022-09-04T06:57:25.106Z,22.40
2022-09-04T07:01:00.676Z,22.50
2022-09-04T07:04:44.985Z,22.70
2022-09-04T07:08:35.266Z,22.70
2022-09-04T07:12:18.796Z,22.70
2022-09-04T07:15:58.821Z,22.70
2022-09-04T07:19:57.945Z,22.70
2022-09-04T07:23:35.925Z,22.80
2022-09-04T07:27:28.169Z,22.90
2022-09-04T07:31:17.141Z,23.10
2022-09-04T07:34:42.152Z,23.00
2022-09-04T07:38:15.784Z,23.10
2022-09-04T07:41:51.780Z,23.20
2022-09-04T07:45:38.481Z,23.20
2022-09-04T07:49:10.123Z,23.40
2022-09-04T07:53:00.207Z,23.60
2022-09-04T07:56:27.341Z,23.50
2022-09-04T07:59:59.178Z,23.50
2022-09-04T08:03:54.411Z,23.50
2022-09-04T08:07:37.970Z,23.50
2022-09-04T08:11:09.101Z,23.60
2022-09-04T08:14:54.407Z,23.70
2022-09-04T08:18:38.277Z,23.70
2022-09-04T08:22:03.043Z,23.70
2022-09-04T08:25:31.614Z,23.60
2022-09-04T08:29:14.813Z,23.60
2022-09-04T08:32:43.139Z,23.50
2022-09-04T08:36:27.532Z,23.50
2022-09-04T08:40:20.770Z,23.50
2022-09-04T08:44:04.494Z,23.40
2022-09-04T08:47:38.764Z,23.50
2022-09-04T08:51:40.047Z,23.60
2022-09-04T08:55:33.194Z,23.70
2022-09-04T08:59:07.537Z,23.90
2022-09-04T09:02:44.791Z,23.90
2022-09-04T09:06:55.574Z,24.00
2022-09-04T09:10:42.977Z,24.10
2022-09-04T09:14:41.923Z,24.20
2022-09-04T09:18:23.130Z,24.20
2022-09-04T09:21:48.282Z,24.20
2022-09-04T09:25:36.141Z,24.30
2022-09-04T09:29:04.126Z,24.20
2022-09-04T09:32:56.635Z,24.10
2022-09-04T09:36:46.562Z,24.00
2022-09-04T09:40:11.511Z,23.90
2022-09-04T09:43:33.577Z,23.90
2022-09-04T09:47:20.825Z,24.00
2022-09-04T09:50:49.249Z,24.10
2022-09-04T09:54:14.686Z,24.00
2022-09-04T09:58:01.597Z,24.00
2022-09-04T10:01:48.535Z,24.00
2022-09-04T10:05:38.932Z,24.00
2022-09-04T10:09:26.072Z,24.10
2022-09-04T10:13:22.074Z,24.20
2022-09-04T10:17:08.950Z,24.20
2022-09-04T10:20:39.938Z,24.30
2022-09-04T10:24:21.899Z,24.30
2022-09-04T10:28:04.862Z,24.40
2022-09-04T10:31:27.149Z,24.50
2022-09-04T10:35:21.269Z,24.50
2022-09-04T10:39:07.838Z,24.60
2022-09-04T10:43:10.084Z,24.60
2022-09-04T10:46:43.252Z,24.50
2022-09-04T10:50:30.283Z,24.60
2022-09-04T10:53:56.557Z,24.60
2022-09-04T10:57:42.062Z,24.60
2022-09-04T11:01:06.972Z,24.60
2022-09-04T11:04:59.367Z,24.60
2022-09-04T11:09:00.564Z,24.60
2022-09-04T11:12:45.908Z,24.70
2022-09-04T11:16:10.908Z,24.70
2022-09-04T11:20:16.127Z,24.80
2022-09-04T11:24:15.398Z,24.80
2022-09-04T11:27:53.241Z,24.80
2022-09-04T11:31:59.872Z,24.70
2022-09-04T11:35:40.565Z,24.80
2022-09-04T11:39:26.135Z,24.70
2022-09-04T11:43:13.872Z,24.80
2022-09-04T11:46:49.525Z,24.80
2022-09-04T11:50:43.660Z,24.80
2022-09-04T11:54:19.456Z,24.80
2022-09-04T11:57:50.317Z,24.90
2022-09-04T12:01:31.190Z,24.80
2022-09-04T12:05:39.432Z,24.80
2022-09-04T12:09:26.207Z,24.80
2022-09-04T12:13:25.754Z,24.80
2022-09-04T12:17:03.042Z,24.90
2022-09-04T12:20:30.918Z,24.90
2022-09-04T12:23:53.146Z,24.90
2022-09-04T12:27:27.162Z,24.90
2022-09-04T12:31:20.745Z,24.90
2022-09-04T12:35:01.744Z,24.90
2022-09-04T12:38:47.166Z,24.90
2022-09-04T12:42:09.312Z,24.80
2022-09-04T12:45:53.356Z,24.80
2022-09-04T12:49:26.115Z,24.80
2022-09-04T12:53:06.261Z,24.80
2022-09-04T12:56:49.452Z,24.80
2022-09-04T13:00:16.815Z,24.80
2022-09-04T13:03:47.737Z,24.90
2022-09-04T13:07:21.026Z,24.90
2022-09-04T13:10:56.657Z,24.90
2022-09-04T13:14:47.907Z,24.90
2022-09-04T13:18:41.084Z,24.90
2022-09-04T13:22:28.157Z,24.90
2022-09-04T13:26:09.122Z,24.90
2022-09-04T13:30:03.064Z,24.90
2022-09-04T13:33:39.856Z,24.90
2022-09-04T13:37:21.297Z,24.80
2022-09-04T13:41:13.982Z,24.80
2022-09-04T13:44:50.053Z,24.90
2022-09-04T13:48:20.232Z,24.90
2022-09-04T13:51:51.656Z,24.90
2022-09-04T13:55:22.685Z,24.90
2022-09-04T13:58:49.569Z,24.90
2022-09-04T14:02:14.728Z,24.90
2022-09-04T14:05:37.796Z,24.90
2022-09-04T14:09:04.713Z,24.90
2022-09-04T14:12:55.066Z,24.90
2022-09-04T14:16:18.907Z,25.00
2022-09-04T14:19:46.922Z,25.00
2022-09-04T14:23:24.327Z,25.10
2022-09-04T14:26:59.809Z,25.00
2022-09-04T14:30:23.049Z,25.00
2022-09-04T14:34:04.845Z,25.00
2022-09-04T14:37:50.158Z,25.00
2022-09-04T14:41:32.838Z,25.00
2022-09-04T14:45:36.976Z,25.10
2022-09-04T14:49:06.812Z,25.10
2022-09-04T14:52:37.859Z,25.10
2022-09-04T14:56:08.009Z,25.10
2022-09-04T14:59:41.331Z,25.10
2022-09-04T15:03:17.270Z,25.10
2022-09-04T15:07:09.789Z,25.00
2022-09-04T15:10:50.368Z,25.10
2022-09-04T15:14:47.653Z,25.10
2022-09-04T15:18:17.946Z,25.10
2022-09-04T15:21:53.317Z,25.10
2022-09-04T15:25:18.174Z,25.10
2022-09-04T15:28:46.309Z,25.10
2022-09-04T15:32:14.037Z,25.20
2022-09-04T15:35:38.714Z,25.40
2022-09-04T15:39:04.938Z,25.40
2022-09-04T15:42:35.304Z,25.40
2022-09-04T15:46:06.841Z,25.30
2022-09-04T15:49:40.216Z,25.20
2022-09-04T15:53:30.790Z,25.20
2022-09-04T15:56:52.925Z,25.20
2022-09-04T16:00:20.492Z,25.20
2022-09-04T16:04:01.125Z,25.20
2022-09-04T16:07:39.374Z,25.20
2022-09-04T16:11:11.694Z,25.20
2022-09-04T16:14:48.450Z,25.20
2022-09-04T16:18:19.690Z,25.20
2022-09-04T16:21:53.834Z,25.30
2022-09-04T16:25:19.167Z,25.20
2022-09-04T16:28:56.162Z,25.20
2022-09-04T16:32:22.138Z,25.30
2022-09-04T16:35:45.022Z,25.30
2022-09-04T16:39:31.984Z,25.30
2022-09-04T16:43:15.357Z,25.20
2022-09-04T16:46:40.821Z,25.30
2022-09-04T16:50:23.675Z,25.30
2022-09-04T16:54:05.269Z,25.40
2022-09-04T16:57:34.165Z,25.40
2022-09-04T17:01:28.166Z,25.40
2022-09-04T17:04:59.957Z,25.50
2022-09-04T17:08:34.436Z,25.60
2022-09-04T17:12:19.606Z,25.60
2022-09-04T17:16:03.800Z,25.60
2022-09-04T17:19:27.552Z,25.60
2022-09-04T17:29:00.159Z,25.50
2022-09-04T17:29:16.211Z,25.60
2022-09-04T17:30:40.371Z,25.50
2022-09-04T17:40:36.253Z,25.50
2022-09-04T17:40:55.607Z,25.60
2022-09-04T17:42:42.132Z,25.60
2022-09-04T17:46:32.306Z,25.60
2022-09-04T17:49:56.325Z,25.50
2022-09-04T17:53:33.713Z,25.60
2022-09-04T17:57:18.437Z,25.60
2022-09-04T18:01:14.674Z,25.50
2022-09-04T18:04:47.185Z,25.60
2022-09-04T18:08:13.095Z,25.60
2022-09-04T18:12:13.258Z,25.60
2022-09-04T18:15:49.077Z,25.50
2022-09-04T18:19:38.330Z,25.40
2022-09-04T18:23:06.221Z,25.30
2022-09-04T18:26:42.645Z,25.30
2022-09-04T18:35:10.922Z,25.20
2022-09-04T18:37:25.133Z,25.20
2022-09-04T18:38:20.385Z,25.00
2022-09-04T18:44:25.811Z,25.00
2022-09-04T18:50:25.371Z,24.80
2022-09-04T18:50:29.883Z,24.70
2022-09-04T18:53:22.046Z,24.60
2022-09-04T18:56:47.911Z,24.50
2022-09-04T19:00:13.469Z,24.50
2022-09-04T19:03:57.577Z,24.40
2022-09-04T19:07:38.806Z,24.30
2022-09-04T19:11:14.398Z,24.30
2022-09-04T19:14:44.217Z,24.30
2022-09-04T19:18:45.456Z,24.20
2022-09-04T19:22:19.285Z,24.10
2022-09-04T19:25:54.778Z,24.00
2022-09-04T19:29:38.490Z,24.00
2022-09-04T19:33:16.535Z,23.90
2022-09-04T19:37:54.351Z,23.90
2022-09-04T19:46:08.793Z,23.80
2022-09-04T19:46:19.269Z,23.70
2022-09-04T19:48:25.624Z,23.70
2022-09-04T19:53:33.360Z,23.60
2022-09-04T19:56:30.127Z,23.50
2022-09-04T20:00:38.390Z,23.50
2022-09-04T20:04:02.432Z,23.50
2022-09-04T20:07:47.656Z,23.40
2022-09-04T20:11:34.592Z,23.40
2022-09-04T20:15:13.756Z,23.40
2022-09-04T20:18:50.076Z,23.30
2022-09-04T20:22:26.542Z,23.20
2022-09-04T20:26:04.986Z,23.20
2022-09-04T20:29:54.914Z,23.20
2022-09-04T20:33:26.278Z,23.10
2022-09-04T20:37:01.053Z,23.10
2022-09-04T20:40:41.354Z,23.20
2022-09-04T20:44:28.881Z,23.20
2022-09-04T20:52:52.414Z,23.10
2022-09-04T20:53:04.258Z,23.20
2022-09-04T20:55:38.932Z,23.40
2022-09-04T21:03:14.434Z,23.60
2022-09-04T21:03:34.243Z,23.70
2022-09-04T21:07:02.753Z,23.90
2022-09-04T21:10:27.796Z,23.90
2022-09-04T21:13:51.725Z,23.90
2022-09-04T21:17:49.581Z,24.00
2022-09-04T21:21:41.870Z,23.90
2022-09-04T21:25:18.392Z,23.90
2022-09-04T21:29:11.107Z,24.00
2022-09-04T21:33:27.886Z,23.90
2022-09-04T21:37:02.657Z,23.90
2022-09-04T21:40:51.500Z,23.80
2022-09-04T21:44:34.523Z,23.90
2022-09-04T21:48:18.039Z,23.80
2022-09-04T21:52:05.117Z,23.80
2022-09-04T21:58:22.988Z,23.80
2022-09-04T22:02:44.440Z,23.80
2022-09-04T22:04:23.406Z,23.80
2022-09-04T22:13:28.412Z,23.80
2022-09-04T22:13:43.728Z,23.70
2022-09-04T22:16:13.487Z,23.80
2022-09-04T22:19:35.838Z,23.80
2022-09-04T22:23:28.693Z,23.80
2022-09-04T22:27:08.684Z,23.70
2022-09-04T22:30:56.048Z,23.70
2022-09-04T22:34:30.126Z,23.70
2022-09-04T22:38:17.581Z,23.70
2022-09-04T22:42:20.532Z,23.70
2022-09-04T22:46:08.618Z,23.70
2022-09-04T22:50:06.365Z,23.70
2022-09-04T22:53:34.660Z,23.70
2022-09-04T22:57:06.463Z,23.70
2022-09-04T23:00:44.218Z,23.70
2022-09-04T23:04:21.562Z,23.70
2022-09-04T23:13:01.358Z,23.70
2022-09-04T23:13:52.005Z,23.70
2022-09-04T23:16:17.947Z,23.70
2022-09-04T23:23:26.109Z,23.70
2022-09-04T23:26:58.017Z,23.70
2022-09-04T23:28:27.456Z,23.80
2022-09-04T23:32:13.242Z,23.90
2022-09-04T23:35:45.599Z,24.00
2022-09-04T23:39:44.967Z,24.00
2022-09-04T23:43:28.740Z,24.00
2022-09-04T23:47:00.163Z,24.00
2022-09-04T23:50:41.355Z,24.00
2022-09-04T23:54:12.720Z,23.80
2022-09-04T23:58:20.906Z,23.50
